Time;durP1;ratioP1;P1;durP2;ratioP2;P2;SDS_P1;SDS_P2;PMS_P1;PMS_P2;Temp;Humidity;BMP_temperature;BMP_pressure;BME280_temperature;BME280_humidity;BME280_pressure;Samples;Min_cycle;Max_cycle;Signal;HPM_P1;HPM_P2
2022/10/14 00:01:24;;;;;;;;;11.00;9.00;;;;;16.11;80.16;100695.28;5058079;28;45415;-60
2022/10/14 00:03:50;;;;;;;;;10.67;9.00;;;;;16.11;79.69;100692.63;5058079;28;45416;-60
2022/10/14 00:06:19;;;;;;;;;9.00;8.33;;;;;16.10;80.06;100688.28;5057556;28;45468;-60
2022/10/14 00:08:46;;;;;;;;;8.00;8.00;;;;;16.10;79.54;100688.28;5057607;28;45538;-61
2022/10/14 00:11:17;;;;;;;;;6.67;6.67;;;;;16.12;79.61;100694.38;5040050;28;45519;-61
2022/10/14 00:13:43;;;;;;;;;7.67;7.67;;;;;16.13;79.64;100690.75;5057785;28;45462;-60
2022/10/14 00:16:17;;;;;;;;;8.00;8.00;;;;;16.12;80.03;100677.59;5057360;28;45412;-60
2022/10/14 00:18:43;;;;;;;;;8.67;8.67;;;;;16.15;79.16;100687.16;5057536;28;45428;-60
2022/10/14 00:21:08;;;;;;;;;6.33;5.33;;;;;16.16;79.35;100679.13;5057416;28;45615;-60
2022/10/14 00:23:33;;;;;;;;;5.00;5.00;;;;;16.18;79.71;100681.69;5057315;28;45550;-60
2022/10/14 00:25:59;;;;;;;;;7.00;7.00;;;;;16.16;79.86;100675.63;5057282;28;45801;-60
2022/10/14 00:28:24;;;;;;;;;7.00;7.00;;;;;16.16;79.71;100670.31;5048250;28;45392;-60
2022/10/14 00:30:57;;;;;;;;;7.33;6.00;;;;;16.15;79.74;100669.47;5057518;28;45433;-59
2022/10/14 00:33:23;;;;;;;;;6.67;6.67;;;;;16.16;79.43;100665.00;5057527;28;45431;-60
2022/10/14 00:35:59;;;;;;;;;5.33;5.33;;;;;16.16;79.63;100657.88;5057079;28;46206;-60
2022/10/14 00:38:26;;;;;;;;;5.00;5.00;;;;;16.17;78.81;100651.63;5057142;28;45464;-60
2022/10/14 00:40:51;;;;;;;;;7.00;7.00;;;;;16.12;79.84;100654.56;5057525;28;45492;-60
2022/10/14 00:43:17;;;;;;;;;5.00;5.00;;;;;16.13;79.44;100643.00;5057337;28;45585;-60
2022/10/14 00:45:42;;;;;;;;;6.00;6.00;;;;;16.17;79.69;100653.44;5057024;28;45395;-60
2022/10/14 00:48:08;;;;;;;;;6.33;5.00;;;;;16.16;80.15;100649.06;5056897;28;48433;-60
2022/10/14 00:50:35;;;;;;;;;6.33;4.67;;;;;16.15;79.63;100645.56;5057343;28;45369;-60
2022/10/14 00:53:02;;;;;;;;;3.67;3.67;;;;;16.12;79.16;100649.25;5057091;28;45389;-60
2022/10/14 00:55:28;;;;;;;;;4.33;4.33;;;;;16.16;79.47;100644.63;5057543;28;45496;-59
2022/10/14 00:57:54;;;;;;;;;5.00;5.00;;;;;16.16;79.74;100638.47;5056792;28;45485;-61
2022/10/14 01:00:21;;;;;;;;;5.00;5.00;;;;;16.17;79.22;100642.81;5057136;28;45428;-60
2022/10/14 01:02:47;;;;;;;;;6.00;6.00;;;;;16.17;80.13;100643.66;5057127;28;45602;-60
2022/10/14 01:05:16;;;;;;;;;5.33;3.67;;;;;16.17;79.72;100637.50;5056599;28;45983;-60
2022/10/14 01:07:54;;;;;;;;;5.00;5.00;;;;;16.17;79.96;100643.66;5056757;28;45434;-60
2022/10/14 01:10:34;;;;;;;;;4.33;4.33;;;;;16.17;79.32;100642.81;5056877;28;45445;-60
2022/10/14 01:13:24;;;;;;;;;5.67;4.33;;;;;16.18;79.79;100639.25;5056912;28;45359;-60
2022/10/14 01:15:53;;;;;;;;;6.00;6.00;;;;;16.18;79.87;100632.13;5056546;28;45470;-60
2022/10/14 01:18:28;;;;;;;;;5.00;5.00;;;;;16.17;79.09;100626.91;5056782;28;45510;-60
2022/10/14 01:21:18;;;;;;;;;4.00;4.00;;;;;16.17;80.12;100621.59;5056746;28;45452;-60
2022/10/14 01:24:06;;;;;;;;;5.00;5.00;;;;;16.15;79.37;100621.69;5056889;28;45465;-60
2022/10/14 01:26:52;;;;;;;;;5.00;4.67;;;;;16.13;79.73;100616.47;5049151;28;45535;-60
2022/10/14 01:29:36;;;;;;;;;5.00;5.00;;;;;16.15;80.04;100605.78;5056455;28;45457;-60
2022/10/14 01:32:26;;;;;;;;;5.00;5.00;;;;;16.13;79.60;100607.66;5056629;28;45546;-60
2022/10/14 01:34:59;;;;;;;;;6.00;6.00;;;;;16.15;79.30;100605.78;5019428;28;45388;-61
2022/10/14 01:37:28;;;;;;;;;6.33;6.33;;;;;16.16;79.92;100602.16;5047815;28;45708;-61
2022/10/14 01:40:04;;;;;;;;;4.00;4.00;;;;;16.15;79.71;100611.09;5056181;28;45510;-60
2022/10/14 01:42:35;;;;;;;;;6.00;5.00;;;;;16.11;79.80;100607.72;5056476;28;45602;-60
2022/10/14 01:45:08;;;;;;;;;5.00;4.67;;;;;16.11;80.09;100597.13;5037712;28;45589;-60
2022/10/14 01:47:35;;;;;;;;;8.67;7.67;;;;;16.11;79.47;100598.94;5056228;28;45506;-59
2022/10/14 01:50:10;;;;;;;;;5.00;4.00;;;;;16.15;79.59;100591.63;5056161;28;45508;-60
2022/10/14 01:52:42;;;;;;;;;7.00;7.00;;;;;16.15;80.30;100584.56;5038233;28;45412;-60
2022/10/14 01:55:14;;;;;;;;;6.33;6.33;;;;;16.15;79.31;100587.19;5056775;28;45391;-60
2022/10/14 01:57:42;;;;;;;;;9.33;7.67;;;;;16.17;79.92;100592.41;5056010;28;45492;-60
2022/10/14 02:00:08;;;;;;;;;7.00;7.00;;;;;16.18;79.55;100591.47;5056296;28;45481;-60
2022/10/14 02:02:37;;;;;;;;;8.33;8.33;;;;;16.15;79.79;100584.56;5055927;28;45446;-60
2022/10/14 02:05:10;;;;;;;;;6.67;6.67;;;;;16.17;79.72;100589.75;5056047;28;45376;-60
2022/10/14 02:07:41;;;;;;;;;9.00;9.00;;;;;16.17;79.51;100589.75;5055734;28;46404;-60
2022/10/14 02:10:33;;;;;;;;;8.33;6.67;;;;;16.15;80.00;100595.16;5055722;28;45553;-61
2022/10/14 02:13:13;;;;;;;;;12.33;12.00;;;;;16.14;80.08;100582.81;5056187;28;45466;-60
2022/10/14 02:15:38;;;;;;;;;8.33;8.33;;;;;16.16;79.99;100580.94;5049602;28;45452;-60
2022/10/14 02:18:18;;;;;;;;;7.33;7.33;;;;;16.13;80.32;100578.47;5055765;28;45554;-60
2022/10/14 02:21:04;;;;;;;;;7.33;7.33;;;;;16.11;79.97;100570.59;5055893;28;45387;-60
2022/10/14 02:23:38;;;;;;;;;8.67;7.67;;;;;16.13;80.13;100568.72;5055818;28;45339;-60
2022/10/14 02:26:05;;;;;;;;;9.00;7.00;;;;;16.16;80.70;100572.97;5055717;28;45451;-60
2022/10/14 02:28:32;;;;;;;;;11.00;10.00;;;;;16.16;79.78;100564.16;5055638;28;45636;-60
2022/10/14 02:31:09;;;;;;;;;8.67;8.67;;;;;16.17;79.82;100569.38;5055692;28;45453;-60
2022/10/14 02:33:41;;;;;;;;;10.33;9.33;;;;;16.16;80.35;100577.44;5055810;28;45410;-60
2022/10/14 02:36:09;;;;;;;;;9.67;9.67;;;;;16.14;80.17;100569.56;5055721;28;45468;-60
2022/10/14 02:38:34;;;;;;;;;8.67;8.67;;;;;16.16;80.59;100562.38;5037332;28;46092;-60
2022/10/14 02:41:04;;;;;;;;;9.67;7.67;;;;;16.18;80.27;100564.94;5055550;28;45439;-60
2022/10/14 02:43:29;;;;;;;;;10.00;9.00;;;;;16.19;80.56;100563.97;5055894;28;45412;-60
2022/10/14 02:45:58;;;;;;;;;9.00;9.00;;;;;16.17;80.92;100563.22;5055309;28;45362;-59
2022/10/14 02:48:24;;;;;;;;;8.00;8.00;;;;;16.10;80.27;100566.25;5055407;28;46202;-60
2022/10/14 02:50:49;;;;;;;;;9.00;9.00;;;;;16.08;81.01;100552.19;5055629;28;45383;-58
2022/10/14 02:53:15;;;;;;;;;9.00;8.00;;;;;16.10;80.50;100555.63;5058873;28;45578;-58
2022/10/14 02:55:41;;;;;;;;;7.33;7.33;;;;;16.15;80.50;100557.13;5059631;28;45496;-58
2022/10/14 02:58:06;;;;;;;;;7.67;7.67;;;;;16.19;80.00;100556.03;5058163;28;58627;-58
2022/10/14 03:00:31;;;;;;;;;7.33;7.00;;;;;16.21;80.77;100562.09;5058828;28;45447;-58
2022/10/14 03:02:57;;;;;;;;;7.67;7.67;;;;;16.19;80.36;100556.88;5058942;28;45407;-58
2022/10/14 03:05:22;;;;;;;;;7.00;7.00;;;;;16.22;80.05;100556.69;5058704;28;45691;-60
2022/10/14 03:07:48;;;;;;;;;8.67;8.67;;;;;16.22;79.85;100558.50;5058647;28;45463;-60
2022/10/14 03:10:13;;;;;;;;;7.67;7.67;;;;;16.22;80.30;100564.66;5058566;28;45416;-60
2022/10/14 03:12:39;;;;;;;;;5.67;5.67;;;;;16.23;80.83;100558.41;5058760;28;45524;-60
2022/10/14 03:15:05;;;;;;;;;6.33;4.67;;;;;16.22;81.06;100559.34;5058455;28;45553;-60
2022/10/14 03:17:30;;;;;;;;;6.00;6.00;;;;;16.24;79.75;100560.09;5058667;28;46035;-60
2022/10/14 03:19:57;;;;;;;;;7.00;7.00;;;;;16.24;80.10;100564.56;5058101;28;45450;-60
2022/10/14 03:22:22;;;;;;;;;3.67;3.67;;;;;16.21;80.33;100564.75;5058231;28;45496;-60
2022/10/14 03:24:47;;;;;;;;;8.00;7.33;;;;;16.22;80.58;100553.19;5058476;28;45584;-61
2022/10/14 03:27:13;;;;;;;;;6.33;6.33;;;;;16.20;80.35;100548.00;5057218;28;49656;-60
2022/10/14 03:29:38;;;;;;;;;5.00;5.00;;;;;16.21;80.07;100560.28;5058335;28;45371;-61
2022/10/14 03:32:04;;;;;;;;;6.00;6.00;;;;;16.19;80.28;100558.69;5058351;28;45399;-60
2022/10/14 03:34:29;;;;;;;;;2.00;2.00;;;;;16.17;80.99;100556.09;5058256;28;45347;-60
2022/10/14 03:36:54;;;;;;;;;6.00;6.00;;;;;16.20;80.02;100557.72;5057079;28;45379;-61
2022/10/14 03:39:19;;;;;;;;;6.00;6.00;;;;;16.22;79.83;100551.38;5058175;28;45398;-58
2022/10/14 03:41:45;;;;;;;;;6.33;6.00;;;;;16.21;79.61;100546.19;5058057;28;47552;-58
2022/10/14 03:44:11;;;;;;;;;5.67;5.00;;;;;16.22;80.13;100550.53;5058101;28;45332;-58
2022/10/14 03:46:36;;;;;;;;;4.00;4.00;;;;;16.23;79.82;100544.28;5058226;28;45830;-58
2022/10/14 03:49:01;;;;;;;;;4.00;4.00;;;;;16.23;80.68;100541.63;5058073;28;45367;-58
2022/10/14 03:51:27;;;;;;;;;5.00;5.00;;;;;16.24;79.97;100538.03;5058107;28;45371;-58
2022/10/14 03:53:52;;;;;;;;;4.00;4.00;;;;;16.25;80.15;100540.56;5039987;28;45426;-59
2022/10/14 03:56:17;;;;;;;;;4.33;4.33;;;;;16.23;79.51;100544.28;5057815;28;58075;-60
2022/10/14 03:58:43;;;;;;;;;4.00;4.00;;;;;16.23;79.35;100545.16;5057835;28;47351;-59
2022/10/14 04:01:08;;;;;;;;;6.00;5.00;;;;;16.20;79.93;100542.69;5057668;28;48773;-58
2022/10/14 04:03:33;;;;;;;;;5.33;4.00;;;;;16.22;79.21;100550.53;5037980;28;45430;-60
2022/10/14 04:05:59;;;;;;;;;5.00;5.00;;;;;16.18;79.45;100539.25;5057819;28;45592;-60
2022/10/14 04:08:24;;;;;;;;;4.00;4.00;;;;;16.17;79.69;100545.50;5057682;28;45563;-58
2022/10/14 04:10:54;;;;;;;;;2.00;2.00;;;;;16.19;79.39;100545.41;5058047;28;45612;-58
2022/10/14 04:13:20;;;;;;;;;3.67;3.67;;;;;16.17;79.41;100542.84;5057919;28;45511;-58
2022/10/14 04:15:45;;;;;;;;;1.33;1.33;;;;;16.19;79.34;100548.06;5057255;28;45356;-58
2022/10/14 04:18:10;;;;;;;;;2.00;2.00;;;;;16.16;79.21;100549.09;5057514;28;45426;-58
2022/10/14 04:20:36;;;;;;;;;2.67;2.67;;;;;16.11;79.17;100548.50;5039596;28;45454;-58
2022/10/14 04:23:01;;;;;;;;;3.00;1.33;;;;;16.10;79.64;100552.97;5057279;28;45715;-59
2022/10/14 04:25:27;;;;;;;;;3.00;2.00;;;;;16.10;78.79;100538.84;5057467;28;45451;-60
2022/10/14 04:27:52;;;;;;;;;1.00;1.00;;;;;16.11;79.41;100545.84;5057547;28;45394;-60
2022/10/14 04:30:17;;;;;;;;;2.00;2.00;;;;;16.12;78.81;100535.16;5057616;28;45450;-58
2022/10/14 04:32:43;;;;;;;;;2.00;2.00;;;;;16.16;78.59;100532.31;5057673;28;45425;-58
2022/10/14 04:35:08;;;;;;;;;3.00;2.00;;;;;16.17;78.85;100536.69;5037955;28;60571;-58
2022/10/14 04:37:34;;;;;;;;;1.00;1.00;;;;;16.16;78.48;100530.53;5057479;28;45437;-58
2022/10/14 04:39:59;;;;;;;;;2.00;2.00;;;;;16.15;78.58;100541.22;5039288;28;45452;-58
2022/10/14 04:42:25;;;;;;;;;1.00;1.00;;;;;16.11;78.28;100544.06;5049075;28;45472;-58
2022/10/14 04:44:50;;;;;;;;;3.00;2.00;;;;;16.09;78.14;100545.09;5039247;28;45468;-58
2022/10/14 04:47:15;;;;;;;;;4.00;2.67;;;;;16.14;78.64;100545.66;5056997;28;45524;-58
2022/10/14 04:49:41;;;;;;;;;1.00;1.00;;;;;16.16;78.68;100543.78;5056969;28;48971;-58
2022/10/14 04:52:06;;;;;;;;;1.00;1.00;;;;;16.18;78.43;100530.44;5057095;28;45419;-59
2022/10/14 04:54:31;;;;;;;;;2.00;2.00;;;;;16.19;78.38;100518.88;5038641;28;46337;-62
2022/10/14 04:56:57;;;;;;;;;1.33;1.33;;;;;16.20;78.04;100517.91;5057167;28;49024;-58
2022/10/14 04:59:22;;;;;;;;;2.67;2.67;;;;;16.22;77.72;100519.53;5056899;28;45463;-61
2022/10/14 05:01:47;;;;;;;;;2.00;2.00;;;;;16.22;77.54;100530.16;5056817;28;45510;-58
2022/10/14 05:04:13;;;;;;;;;2.00;2.00;;;;;16.18;77.34;100528.63;5056622;28;45424;-61
2022/10/14 05:06:38;;;;;;;;;2.00;2.00;;;;;16.20;78.22;100528.53;5056842;28;45567;-58
2022/10/14 05:09:05;;;;;;;;;1.00;1.00;;;;;16.18;77.41;100519.84;5057040;28;45410;-61
2022/10/14 05:11:31;;;;;;;;;1.00;1.00;;;;;16.10;77.68;100521.13;5056914;28;45444;-59
2022/10/14 05:13:56;;;;;;;;;2.00;2.00;;;;;16.11;77.17;100521.97;5056243;28;46094;-58
2022/10/14 05:16:22;;;;;;;;;1.67;1.67;;;;;16.13;77.82;100528.91;5056625;28;45445;-58
2022/10/14 05:18:48;;;;;;;;;2.00;2.00;;;;;16.16;77.31;100527.03;5056807;28;45783;-61
2022/10/14 05:21:13;;;;;;;;;2.00;1.00;;;;;16.18;77.34;100527.78;5038640;28;45399;-61
2022/10/14 05:23:39;;;;;;;;;1.00;1.00;;;;;16.18;77.99;100523.34;5055170;28;46086;-58
2022/10/14 05:26:04;;;;;;;;;1.00;1.00;;;;;16.19;77.54;100525.03;5056369;28;51743;-58
2022/10/14 05:28:30;;;;;;;;;3.00;1.00;;;;;16.20;77.75;100520.56;5056552;28;45472;-61
2022/10/14 05:30:55;;;;;;;;;1.33;1.33;;;;;16.20;77.88;100515.25;5056494;28;45599;-58
2022/10/14 05:33:21;;;;;;;;;3.33;2.00;;;;;16.17;77.73;100510.16;5056451;28;45518;-58
2022/10/14 05:35:46;;;;;;;;;2.00;2.00;;;;;16.18;77.47;100509.22;5056337;28;45485;-58
2022/10/14 05:38:12;;;;;;;;;2.33;2.33;;;;;16.20;77.72;100515.25;5056618;28;45427;-60
2022/10/14 05:40:37;;;;;;;;;2.67;2.67;;;;;16.18;77.15;100517.19;5056654;28;45554;-59
2022/10/14 05:43:03;;;;;;;;;2.00;2.00;;;;;16.16;77.02;100500.50;5056240;28;45866;-60
2022/10/14 05:45:28;;;;;;;;;2.33;2.33;;;;;16.11;77.74;100512.22;5055997;28;45799;-59
2022/10/14 05:47:53;;;;;;;;;3.00;3.00;;;;;16.08;77.81;100514.22;5056042;28;52227;-59
2022/10/14 05:50:19;;;;;;;;;4.67;4.67;;;;;16.11;78.20;100506.91;5056065;28;45523;-60
2022/10/14 05:52:45;;;;;;;;;4.33;3.00;;;;;16.14;78.11;100516.50;5056150;28;45346;-61
2022/10/14 05:55:10;;;;;;;;;3.00;3.00;;;;;16.12;77.57;100513.09;5056098;28;45529;-58
2022/10/14 05:57:35;;;;;;;;;4.33;3.67;;;;;16.10;77.87;100512.31;5056776;28;45555;-59
2022/10/14 06:00:03;;;;;;;;;4.00;4.00;;;;;16.12;77.20;100515.75;5056016;28;45629;-59
2022/10/14 06:02:30;;;;;;;;;4.67;4.00;;;;;16.12;78.22;100524.56;5055719;28;47763;-59
2022/10/14 06:04:55;;;;;;;;;6.00;6.00;;;;;16.13;78.37;100518.28;5055962;28;45432;-59
2022/10/14 06:07:20;;;;;;;;;4.33;4.00;;;;;16.08;78.21;100523.00;5056105;28;45442;-59
2022/10/14 06:09:46;;;;;;;;;8.67;7.00;;;;;16.13;77.82;100522.75;5055939;28;45494;-59
2022/10/14 06:12:11;;;;;;;;;3.00;3.00;;;;;16.10;78.20;100514.97;5037506;28;46200;-59
2022/10/14 06:14:37;;;;;;;;;6.00;6.00;;;;;16.13;78.38;100517.44;5037815;28;45471;-59
2022/10/14 06:17:04;;;;;;;;;4.33;4.33;;;;;16.17;77.36;100520.75;5055966;28;45489;-59
2022/10/14 06:19:31;;;;;;;;;5.33;5.33;;;;;16.19;77.79;100517.06;5055673;28;45686;-59
2022/10/14 06:21:56;;;;;;;;;4.67;4.67;;;;;16.20;77.89;100515.25;5054769;28;45409;-59
2022/10/14 06:24:22;;;;;;;;;7.00;5.67;;;;;16.18;77.57;100511.88;5055671;28;45384;-59
2022/10/14 06:26:47;;;;;;;;;5.67;5.67;;;;;16.16;77.86;100506.66;5057126;28;45452;-61
2022/10/14 06:29:13;;;;;;;;;6.33;5.67;;;;;16.11;78.43;100508.72;5041254;28;45572;-60
2022/10/14 06:31:38;;;;;;;;;7.33;7.33;;;;;16.19;78.25;100521.53;5058640;28;45382;-59
2022/10/14 06:34:04;;;;;;;;;7.67;7.67;;;;;16.22;77.54;100508.06;5058842;28;53811;-59
2022/10/14 06:36:30;;;;;;;;;6.00;6.00;;;;;16.18;77.83;100518.03;5059186;28;45396;-59
2022/10/14 06:38:55;;;;;;;;;7.67;7.67;;;;;16.19;77.76;100526.84;5059055;28;45573;-59
2022/10/14 06:41:21;;;;;;;;;5.67;4.00;;;;;16.22;77.24;100524.00;5058811;28;53974;-59
2022/10/14 06:43:47;;;;;;;;;6.00;6.00;;;;;16.21;77.17;100517.84;5058891;28;45403;-60
2022/10/14 06:46:12;;;;;;;;;6.00;6.00;;;;;16.26;77.25;100525.53;5058991;28;45473;-59
2022/10/14 06:48:38;;;;;;;;;6.67;6.67;;;;;16.26;76.90;100520.22;5059096;28;45673;-59
2022/10/14 06:51:03;;;;;;;;;8.00;6.00;;;;;16.27;76.81;100528.06;5058465;28;45911;-59
2022/10/14 06:53:28;;;;;;;;;4.33;4.33;;;;;16.29;76.10;100525.34;5058671;28;45387;-60
2022/10/14 06:56:02;;;;;;;;;6.00;6.00;;;;;16.27;76.81;100537.84;5058944;28;45410;-61
2022/10/14 06:58:29;;;;;;;;;4.33;4.33;;;;;16.24;77.18;100540.69;5058707;28;45487;-60
2022/10/14 07:00:54;;;;;;;;;6.00;5.67;;;;;16.21;77.00;100538.22;5058397;28;45919;-60
2022/10/14 07:03:20;;;;;;;;;4.00;3.00;;;;;16.12;77.20;100535.16;5058554;28;45497;-60
2022/10/14 07:05:46;;;;;;;;;2.00;2.00;;;;;16.12;77.47;100532.53;5058602;28;45431;-60
2022/10/14 07:08:11;;;;;;;;;2.00;2.00;;;;;16.16;77.59;100541.13;5058500;28;45519;-59
2022/10/14 07:10:36;;;;;;;;;4.67;4.67;;;;;16.15;77.36;100543.88;5058408;28;46398;-59
2022/10/14 07:13:02;;;;;;;;;3.00;3.00;;;;;16.13;76.63;100549.28;5058330;28;45379;-59
2022/10/14 07:15:27;;;;;;;;;5.00;5.00;;;;;16.10;77.62;100552.97;5057203;28;50820;-59
2022/10/14 07:17:53;;;;;;;;;4.00;4.00;;;;;16.08;77.13;100549.53;5057074;28;45611;-59
2022/10/14 07:20:18;;;;;;;;;2.00;2.00;;;;;16.07;77.22;100558.47;5057488;28;60049;-59
2022/10/14 07:22:44;;;;;;;;;2.67;2.67;;;;;16.01;77.45;100568.56;5058228;28;45383;-60
2022/10/14 07:25:09;;;;;;;;;4.33;3.00;;;;;16.03;76.84;100562.22;5058447;28;45917;-59
2022/10/14 07:27:35;;;;;;;;;4.00;3.00;;;;;16.01;77.54;100564.13;5058452;28;45507;-61
2022/10/14 07:30:00;;;;;;;;;4.00;2.00;;;;;15.98;76.99;100560.78;5058269;28;45407;-59
2022/10/14 07:32:26;;;;;;;;;3.00;3.00;;;;;15.99;77.11;100566.03;5057947;28;45457;-59
2022/10/14 07:34:51;;;;;;;;;2.33;2.33;;;;;15.95;77.49;100571.59;5058367;28;45442;-59
2022/10/14 07:37:16;;;;;;;;;2.00;2.00;;;;;15.86;76.89;100571.16;5058155;28;45490;-60
2022/10/14 07:39:42;;;;;;;;;3.00;3.00;;;;;15.86;76.68;100575.63;5056192;28;55779;-60
2022/10/14 07:42:07;;;;;;;;;5.00;5.00;;;;;15.87;77.14;100585.28;5058139;28;45417;-59
2022/10/14 07:44:32;;;;;;;;;3.00;2.00;;;;;15.87;76.95;100583.47;5058136;28;45763;-59
2022/10/14 07:46:59;;;;;;;;;3.00;3.00;;;;;15.85;77.00;100585.38;5057957;28;45549;-59
2022/10/14 07:49:24;;;;;;;;;3.00;1.33;;;;;15.89;76.78;100591.38;5057818;28;46000;-60
2022/10/14 07:51:50;;;;;;;;;2.67;2.00;;;;;15.88;76.82;100592.31;5039850;28;45477;-60
2022/10/14 07:54:22;;;;;;;;;2.00;2.00;;;;;15.85;76.62;100589.81;5058083;28;45641;-60
2022/10/14 07:56:48;;;;;;;;;1.00;1.00;;;;;15.88;76.79;100587.88;5058394;28;45389;-60
2022/10/14 07:59:13;;;;;;;;;1.00;1.00;;;;;15.91;76.85;100589.47;5057779;28;45943;-61
2022/10/14 08:01:39;;;;;;;;;2.00;2.00;;;;;15.94;76.14;100584.00;5057591;28;45465;-60
2022/10/14 08:04:05;;;;;;;;;2.00;2.00;;;;;15.95;75.32;100584.84;5058077;28;45386;-60
2022/10/14 08:06:30;;;;;;;;;1.67;1.33;;;;;15.96;75.74;100589.19;5057967;28;45532;-58
2022/10/14 08:08:55;;;;;;;;;2.00;2.00;;;;;15.99;75.10;100595.19;5057314;28;46302;-58
2022/10/14 08:11:26;;;;;;;;;2.00;2.00;;;;;16.01;75.52;100601.28;5057671;28;45432;-59
2022/10/14 08:13:52;;;;;;;;;4.00;4.00;;;;;16.03;74.59;100596.72;5057986;28;45447;-59
2022/10/14 08:16:19;;;;;;;;;5.33;4.00;;;;;16.04;74.29;100603.75;5057460;28;45412;-59
2022/10/14 08:18:46;;;;;;;;;2.00;2.00;;;;;16.02;73.67;100600.31;5057380;28;45479;-58
2022/10/14 08:21:12;;;;;;;;;1.00;1.00;;;;;16.07;74.05;100618.63;5057410;28;45372;-59
2022/10/14 08:23:37;;;;;;;;;3.00;2.00;;;;;16.06;74.56;100608.94;5057372;28;45482;-58
2022/10/14 08:26:02;;;;;;;;;4.33;4.33;;;;;16.07;74.27;100608.88;5056968;28;57306;-59
2022/10/14 08:28:28;;;;;;;;;2.33;2.33;;;;;16.09;73.23;100609.66;5057366;28;45443;-59
2022/10/14 08:30:53;;;;;;;;;4.00;4.00;;;;;16.09;73.95;100607.00;5057023;28;45418;-59
2022/10/14 08:33:18;;;;;;;;;2.33;2.33;;;;;16.13;74.13;100615.63;5057238;28;45402;-59
2022/10/14 08:35:44;;;;;;;;;3.00;1.33;;;;;16.14;73.87;100617.31;5057415;28;45549;-59
2022/10/14 08:38:10;;;;;;;;;3.00;3.00;;;;;16.13;73.57;100615.63;5057164;28;46112;-59
2022/10/14 08:40:59;;;;;;;;;2.00;2.00;;;;;16.15;73.58;100611.09;5057070;28;45955;-59
2022/10/14 08:43:31;;;;;;;;;3.33;2.33;;;;;16.17;73.92;100613.63;5057240;28;45333;-59
2022/10/14 08:46:17;;;;;;;;;1.33;1.33;;;;;16.20;73.32;100610.78;5057201;28;45498;-60
2022/10/14 08:48:44;;;;;;;;;3.00;2.00;;;;;16.23;73.94;100613.28;5038754;28;45582;-59
2022/10/14 08:51:14;;;;;;;;;4.33;2.00;;;;;16.24;73.76;100601.72;5056586;28;45466;-60
2022/10/14 08:53:45;;;;;;;;;1.33;1.33;;;;;16.28;73.98;100604.13;5056811;28;45440;-60
2022/10/14 08:56:13;;;;;;;;;2.67;1.33;;;;;16.22;73.21;100609.75;5056276;28;45351;-60
2022/10/14 08:58:46;;;;;;;;;3.00;2.00;;;;;16.19;73.36;100601.97;5057286;28;46071;-62
2022/10/14 09:01:23;;;;;;;;;2.00;2.00;;;;;16.24;73.42;100607.03;5056767;28;45394;-60
2022/10/14 09:03:52;;;;;;;;;2.67;2.67;;;;;16.27;73.58;100601.53;5056904;28;45408;-60
2022/10/14 09:06:26;;;;;;;;;2.33;2.33;;;;;16.28;73.81;100605.88;5038534;28;45447;-60
2022/10/14 09:09:14;;;;;;;;;3.00;2.67;;;;;16.25;73.95;100598.97;5056483;28;46165;-60
2022/10/14 09:11:43;;;;;;;;;3.67;3.67;;;;;16.28;74.41;100603.22;5055828;28;45343;-60
2022/10/14 09:14:16;;;;;;;;;3.33;3.33;;;;;16.30;74.08;100598.69;5056592;28;45401;-59
2022/10/14 09:16:44;;;;;;;;;3.33;2.33;;;;;16.30;73.87;100591.59;5056701;28;45467;-59
2022/10/14 09:19:31;;;;;;;;;3.67;3.33;;;;;16.29;73.84;100586.38;5056299;28;46189;-60
2022/10/14 09:21:58;;;;;;;;;3.00;3.00;;;;;16.30;74.29;100588.09;5056222;28;45396;-59
2022/10/14 09:24:34;;;;;;;;;4.00;2.67;;;;;16.29;74.29;100583.72;5056654;28;45470;-59
2022/10/14 09:27:04;;;;;;;;;4.00;4.00;;;;;16.30;74.00;100574.81;5056498;28;45459;-59
2022/10/14 09:29:34;;;;;;;;;3.00;3.00;;;;;16.32;74.36;100579.09;5038229;28;48307;-60
2022/10/14 09:32:06;;;;;;;;;3.33;3.33;;;;;16.35;73.98;100580.69;5056483;28;45392;-59
2022/10/14 09:34:35;;;;;;;;;4.00;4.00;;;;;16.37;74.02;100584.13;5056545;28;45470;-59
2022/10/14 09:37:26;;;;;;;;;5.67;5.00;;;;;16.34;74.03;100581.66;5056452;28;45391;-60
2022/10/14 09:39:55;;;;;;;;;4.00;3.00;;;;;16.37;73.93;100578.81;5056276;28;45411;-59
2022/10/14 09:42:25;;;;;;;;;3.00;2.00;;;;;16.38;74.23;100587.63;5056312;28;45383;-59
2022/10/14 09:45:09;;;;;;;;;6.00;6.00;;;;;16.36;74.55;100579.75;5056066;28;45533;-59
2022/10/14 09:47:45;;;;;;;;;3.33;3.33;;;;;16.37;74.50;100575.31;5055964;28;45569;-59
2022/10/14 09:50:23;;;;;;;;;3.00;3.00;;;;;16.36;73.84;100577.09;5055920;28;46246;-59
2022/10/14 09:52:51;;;;;;;;;3.00;3.00;;;;;16.35;73.74;100580.69;5056092;28;45552;-59
2022/10/14 09:55:20;;;;;;;;;4.00;4.00;;;;;16.35;74.73;100578.03;5056168;28;45463;-59
2022/10/14 09:57:46;;;;;;;;;5.00;5.00;;;;;16.36;73.69;100579.75;5056720;28;45752;-59
2022/10/14 10:00:28;;;;;;;;;5.00;4.00;;;;;16.37;74.52;100580.63;5055621;28;45400;-59
2022/10/14 10:02:54;;;;;;;;;4.00;4.00;;;;;16.38;74.73;100579.66;5054218;28;45459;-60
2022/10/14 10:05:23;;;;;;;;;7.00;7.00;;;;;16.40;74.93;100569.81;5056117;28;45386;-59
2022/10/14 10:08:13;;;;;;;;;7.00;6.00;;;;;16.42;73.95;100568.78;5055814;28;45528;-59
2022/10/14 10:10:38;;;;;;;;;6.00;6.00;;;;;16.42;74.44;100571.44;5055465;28;45474;-60
2022/10/14 10:13:20;;;;;;;;;5.00;3.00;;;;;16.46;74.21;100572.94;5055595;28;45421;-60
2022/10/14 10:15:57;;;;;;;;;6.67;6.00;;;;;16.45;74.30;100565.94;5055670;28;45443;-60
2022/10/14 10:18:23;;;;;;;;;6.33;6.00;;;;;16.48;74.06;100578.16;5055759;28;45391;-59
2022/10/14 10:21:00;;;;;;;;;4.67;4.67;;;;;16.41;74.05;100572.38;5055118;28;45518;-60
2022/10/14 10:23:26;;;;;;;;;7.00;6.67;;;;;16.42;74.63;100571.44;5055405;28;45576;-60
2022/10/14 10:25:51;;;;;;;;;9.67;7.00;;;;;16.45;74.56;100565.94;5055844;28;45631;-59
2022/10/14 10:28:26;;;;;;;;;8.00;6.00;;;;;16.49;74.16;100575.41;5055721;28;45580;-59
2022/10/14 10:31:28;;;;;;;;;5.33;5.33;;;;;16.48;74.58;100555.13;5055349;28;45477;-59
2022/10/14 10:34:06;;;;;;;;;6.00;5.33;;;;;16.51;73.95;100554.94;5055329;28;45350;-59
2022/10/14 10:36:40;;;;;;;;;7.00;6.33;;;;;16.50;73.57;100549.75;5055599;28;45426;-59
2022/10/14 10:39:14;;;;;;;;;6.33;6.33;;;;;16.48;73.79;100555.13;5055725;28;45479;-59
2022/10/14 10:41:39;;;;;;;;;8.00;6.00;;;;;16.51;74.13;100554.94;5055158;28;47280;-60
2022/10/14 10:44:18;;;;;;;;;3.00;3.00;;;;;16.50;72.97;100555.03;5055170;28;45365;-59
2022/10/14 10:46:55;;;;;;;;;6.00;6.00;;;;;16.50;73.38;100550.59;5055622;28;45513;-59
2022/10/14 10:49:26;;;;;;;;;5.00;5.00;;;;;16.52;73.69;100545.16;5055293;28;45400;-59
2022/10/14 10:52:16;;;;;;;;;5.00;4.00;;;;;16.52;73.72;100534.53;5036521;28;46348;-59
2022/10/14 10:55:12;;;;;;;;;5.33;4.00;;;;;16.54;73.17;100535.31;5055152;28;45517;-60
2022/10/14 10:57:55;;;;;;;;;3.33;3.33;;;;;16.58;73.36;100523.56;5049027;28;45480;-62
2022/10/14 11:00:22;;;;;;;;;5.00;5.00;;;;;16.62;74.11;100513.59;5055318;28;45328;-60
2022/10/14 11:02:57;;;;;;;;;5.00;5.00;;;;;16.63;73.51;100510.00;5036933;28;47290;-60
2022/10/14 11:05:57;;;;;;;;;4.00;4.00;;;;;16.61;73.50;100507.44;5055030;28;45431;-60
2022/10/14 11:12:02;;;;;;;;;4.67;3.67;;;;;16.60;73.92;100510.19;5055271;28;45459;-58
2022/10/14 11:14:27;;;;;;;;;13.00;12.00;;;;;16.56;74.89;100510.38;5050317;28;46182;-59
2022/10/14 11:17:23;;;;;;;;;6.67;6.00;;;;;16.53;74.22;100509.72;5057874;28;45312;-59
2022/10/14 11:20:03;;;;;;;;;6.00;6.00;;;;;16.51;74.53;100508.97;5058414;28;45437;-59
2022/10/14 11:22:44;;;;;;;;;7.00;7.00;;;;;16.45;74.36;100504.88;5058028;28;45479;-59
2022/10/14 11:25:39;;;;;;;;;6.00;6.00;;;;;16.48;75.03;100496.72;5058030;28;46097;-59
2022/10/14 11:28:13;;;;;;;;;4.00;2.67;;;;;16.51;74.46;100480.59;5057669;28;45310;-59
2022/10/14 11:31:16;;;;;;;;;2.33;2.33;;;;;16.52;74.79;100471.72;5058472;28;45388;-59
2022/10/14 11:33:52;;;;;;;;;6.00;6.00;;;;;16.53;74.57;100475.22;5058431;28;45635;-59
2022/10/14 11:36:33;;;;;;;;;5.00;4.67;;;;;16.49;73.86;100474.53;5057822;28;45419;-59
2022/10/14 11:39:07;;;;;;;;;3.00;3.00;;;;;16.51;73.94;100467.31;5058198;28;45566;-59